createdAt,value
2019-02-03T00:01:42.159Z,220.07
2019-02-03T00:04:10.818Z,199.32
2019-02-03T00:06:39.686Z,197.72
2019-02-03T00:09:11.156Z,210.35
2019-02-03T00:11:39.740Z,217.62
2019-02-03T00:14:08.323Z,249.22
2019-02-03T00:16:36.895Z,286.43
2019-02-03T00:19:05.563Z,309.75
2019-02-03T00:21:34.131Z,289.05
2019-02-03T00:24:02.698Z,345.93
2019-02-03T00:26:31.365Z,356.80
2019-02-03T00:28:59.935Z,350.73
2019-02-03T00:31:28.522Z,368.25
2019-02-03T00:33:57.094Z,345.55
2019-02-03T00:36:25.688Z,376.02
2019-02-03T00:38:54.301Z,454.32
2019-02-03T00:41:22.922Z,447.85
2019-02-03T00:43:51.416Z,407.90
2019-02-03T00:46:20.003Z,464.75
2019-02-03T00:48:49.007Z,477.00
2019-02-03T00:51:17.636Z,493.37
2019-02-03T00:53:46.208Z,492.77
2019-02-03T00:56:14.801Z,484.45
2019-02-03T00:58:43.472Z,477.85
2019-02-03T01:01:12.064Z,456.20
2019-02-03T01:03:40.832Z,438.90
2019-02-03T01:06:09.563Z,485.63
2019-02-03T01:08:38.135Z,412.42
2019-02-03T01:11:06.722Z,412.70
2019-02-03T01:13:35.362Z,456.82
2019-02-03T01:16:04.031Z,476.77
2019-02-03T01:18:32.600Z,424.23
2019-02-03T01:21:02.259Z,434.70
2019-02-03T01:23:30.827Z,418.75
2019-02-03T01:25:59.415Z,427.80
2019-02-03T01:28:27.983Z,475.92
2019-02-03T01:30:56.576Z,408.98
2019-02-03T01:33:25.148Z,350.30
2019-02-03T01:35:53.738Z,393.30
2019-02-03T01:38:22.308Z,354.70
2019-02-03T01:40:50.908Z,316.80
2019-02-03T01:43:19.466Z,362.77
2019-02-03T01:45:48.068Z,284.15
2019-02-03T01:48:16.652Z,280.92
2019-02-03T01:50:45.233Z,239.65
2019-02-03T01:53:13.798Z,203.40
2019-02-03T01:55:42.391Z,159.95
2019-02-03T01:58:10.959Z,159.72
2019-02-03T02:00:39.918Z,181.55
2019-02-03T02:03:08.486Z,180.20
2019-02-03T02:05:37.078Z,169.93
2019-02-03T02:08:05.647Z,154.82
2019-02-03T02:10:34.239Z,132.07
2019-02-03T02:13:02.809Z,150.47
2019-02-03T02:15:31.708Z,151.37
2019-02-03T02:18:00.275Z,164.37
2019-02-03T02:20:29.798Z,175.95
2019-02-03T02:22:58.362Z,200.32
2019-02-03T02:25:26.963Z,205.10
2019-02-03T02:27:55.537Z,234.32
2019-02-03T02:30:27.619Z,188.25
2019-02-03T02:32:56.259Z,254.00
2019-02-03T02:35:24.925Z,239.08
2019-02-03T02:38:06.037Z,304.43
2019-02-03T02:40:25.051Z,290.02
2019-02-03T02:42:53.880Z,311.40
2019-02-03T02:45:22.768Z,269.20
2019-02-03T02:47:51.508Z,298.93
2019-02-03T02:50:28.774Z,284.60
2019-02-03T02:52:57.421Z,273.95
2019-02-03T02:55:26.012Z,303.25
2019-02-03T02:57:54.583Z,315.27
2019-02-03T03:00:24.808Z,264.25
2019-02-03T03:02:53.379Z,300.18
2019-02-03T03:05:22.078Z,257.52
2019-02-03T03:07:50.744Z,227.25
2019-02-03T03:10:20.456Z,254.05
2019-02-03T03:12:49.184Z,228.45
2019-02-03T03:15:21.676Z,244.70
2019-02-03T03:17:50.511Z,240.28
2019-02-03T03:20:22.622Z,245.52
2019-02-03T03:22:51.587Z,233.38
2019-02-03T03:25:21.691Z,233.20
2019-02-03T03:27:50.279Z,244.65
2019-02-03T03:30:30.718Z,235.93
2019-02-03T03:32:59.292Z,255.70
2019-02-03T03:35:28.326Z,251.62
2019-02-03T03:37:56.910Z,252.70
2019-02-03T03:40:27.624Z,267.98
2019-02-03T03:42:56.354Z,268.77
2019-02-03T03:45:25.351Z,285.22
2019-02-03T03:47:54.006Z,295.30
2019-02-03T03:50:22.587Z,316.75
2019-02-03T03:52:51.175Z,297.77
2019-02-03T03:55:19.767Z,277.35
2019-02-03T03:57:48.334Z,230.32
2019-02-03T04:00:23.996Z,221.22
2019-02-03T04:02:52.936Z,207.60
2019-02-03T04:05:21.641Z,215.70
2019-02-03T04:07:50.471Z,238.65
2019-02-03T04:10:20.879Z,230.65
2019-02-03T04:12:49.471Z,236.28
2019-02-03T04:15:21.323Z,247.37
2019-02-03T04:17:50.063Z,226.15
2019-02-03T04:20:29.050Z,212.27
2019-02-03T04:22:57.723Z,160.78
2019-02-03T04:25:26.732Z,182.78
2019-02-03T04:27:55.631Z,173.25
2019-02-03T04:30:25.843Z,166.88
2019-02-03T04:32:54.566Z,160.43
2019-02-03T04:35:23.133Z,184.48
2019-02-03T04:37:51.976Z,184.10
2019-02-03T04:40:21.788Z,157.60
2019-02-03T04:42:50.619Z,147.65
2019-02-03T04:45:22.334Z,146.43
2019-02-03T04:47:49.860Z,118.25
2019-02-03T04:50:20.455Z,114.45
2019-02-03T04:52:49.075Z,123.87
2019-02-03T04:55:19.689Z,132.20
2019-02-03T04:57:48.350Z,148.75
2019-02-03T05:00:21.797Z,146.90
2019-02-03T05:02:50.528Z,114.90
2019-02-03T05:05:19.172Z,132.80
2019-02-03T05:07:47.767Z,141.37
2019-02-03T05:10:17.479Z,131.63
2019-02-03T05:12:46.080Z,141.90
2019-02-03T05:15:19.104Z,172.72
2019-02-03T05:17:47.762Z,137.62
2019-02-03T05:20:21.931Z,143.00
2019-02-03T05:22:50.523Z,142.93
2019-02-03T05:25:19.167Z,170.97
2019-02-03T05:27:47.763Z,152.60
2019-02-03T05:30:18.842Z,153.45
2019-02-03T05:32:47.438Z,152.97
2019-02-03T05:35:16.035Z,169.65
2019-02-03T05:37:44.685Z,166.18
2019-02-03T05:40:15.572Z,136.12
2019-02-03T05:42:44.166Z,165.60
2019-02-03T05:45:20.156Z,165.03
2019-02-03T05:47:50.178Z,147.98
2019-02-03T05:50:20.811Z,174.97
2019-02-03T05:52:49.479Z,167.37
2019-02-03T05:55:18.806Z,182.75
2019-02-03T05:57:47.387Z,155.52
2019-02-03T06:00:22.547Z,160.50
2019-02-03T06:02:51.135Z,179.93
2019-02-03T06:05:19.777Z,178.80
2019-02-03T06:07:48.376Z,157.30
2019-02-03T06:10:18.298Z,179.42
2019-02-03T06:12:47.123Z,161.70
2019-02-03T06:15:16.170Z,178.20
2019-02-03T06:17:44.851Z,161.30
2019-02-03T06:20:18.065Z,157.90
2019-02-03T06:22:46.830Z,169.77
2019-02-03T06:25:16.161Z,148.62
2019-02-03T06:27:44.967Z,175.55
2019-02-03T06:30:25.672Z,155.67
2019-02-03T06:32:54.266Z,171.32
2019-02-03T06:35:22.843Z,156.87
2019-02-03T06:37:51.437Z,150.78
2019-02-03T06:40:20.308Z,147.20
2019-02-03T06:42:48.903Z,161.95
2019-02-03T06:45:35.128Z,161.18
2019-02-03T06:48:03.736Z,162.97
2019-02-03T06:50:32.561Z,151.97
2019-02-03T06:53:01.150Z,156.00
2019-02-03T06:55:29.726Z,142.47
2019-02-03T06:57:58.322Z,153.90
2019-02-03T07:00:26.895Z,153.35
2019-02-03T07:02:55.486Z,148.10
2019-02-03T07:05:24.058Z,138.88
2019-02-03T07:07:52.658Z,159.67
2019-02-03T07:10:21.231Z,129.53
2019-02-03T07:12:49.826Z,140.88
2019-02-03T07:15:18.398Z,131.97
2019-02-03T07:17:46.991Z,123.20
2019-02-03T07:20:16.798Z,133.00
2019-02-03T07:22:45.464Z,116.35
2019-02-03T07:25:14.176Z,120.05
2019-02-03T07:27:42.770Z,122.22
2019-02-03T07:30:21.755Z,111.30
2019-02-03T07:32:50.355Z,117.28
2019-02-03T07:35:18.929Z,105.27
2019-02-03T07:37:47.522Z,106.97
2019-02-03T07:40:18.512Z,102.90
2019-02-03T07:42:47.170Z,105.30
2019-02-03T07:45:15.888Z,105.30
2019-02-03T07:47:44.785Z,109.35
2019-02-03T07:50:17.208Z,113.08
2019-02-03T07:52:45.888Z,104.92
2019-02-03T07:55:15.654Z,111.42
2019-02-03T07:57:44.253Z,91.45
2019-02-03T08:00:17.824Z,104.10
2019-02-03T08:02:46.410Z,100.82
2019-02-03T08:05:15.252Z,114.72
2019-02-03T08:07:43.832Z,115.70
2019-02-03T08:10:24.364Z,112.37
2019-02-03T08:12:47.051Z,107.20
2019-02-03T08:15:19.634Z,118.93
2019-02-03T08:17:48.440Z,165.57
2019-02-03T08:20:22.376Z,329.68
2019-02-03T08:22:50.968Z,105.85
2019-02-03T08:25:19.670Z,99.60
2019-02-03T08:27:48.444Z,105.83
2019-02-03T08:30:22.608Z,107.90
2019-02-03T08:32:51.179Z,107.10
2019-02-03T08:35:20.093Z,104.03
2019-02-03T08:37:48.743Z,100.05
2019-02-03T08:40:19.972Z,105.80
2019-02-03T08:42:48.617Z,118.75
2019-02-03T08:45:21.355Z,134.60
2019-02-03T08:47:50.367Z,131.95
2019-02-03T08:50:22.799Z,146.77
2019-02-03T08:52:51.581Z,159.18
2019-02-03T08:55:20.329Z,159.87
2019-02-03T08:57:48.886Z,150.25
2019-02-03T09:00:31.707Z,145.40
2019-02-03T09:03:00.414Z,150.40
2019-02-03T09:05:29.380Z,155.00
2019-02-03T09:07:57.950Z,162.12
2019-02-03T09:10:26.610Z,158.20
2019-02-03T09:12:55.295Z,134.72
2019-02-03T09:15:29.139Z,141.62
2019-02-03T09:17:57.779Z,153.57
2019-02-03T09:20:31.650Z,164.13
2019-02-03T09:23:00.358Z,145.90
2019-02-03T09:25:29.022Z,139.92
2019-02-03T09:27:57.596Z,146.40
2019-02-03T09:30:30.835Z,136.62
2019-02-03T09:32:59.419Z,147.05
2019-02-03T09:35:28.004Z,152.95
2019-02-03T09:37:56.639Z,122.92
2019-02-03T09:40:27.379Z,148.43
2019-02-03T09:42:55.951Z,118.75
2019-02-03T09:45:25.178Z,128.68
2019-02-03T09:47:53.755Z,134.75
2019-02-03T09:50:27.304Z,119.90
2019-02-03T09:52:57.223Z,124.92
2019-02-03T09:55:25.815Z,114.55
2019-02-03T09:57:54.562Z,116.65
2019-02-03T10:00:32.199Z,118.60
2019-02-03T10:03:01.518Z,120.82
2019-02-03T10:05:30.310Z,129.00
2019-02-03T10:07:58.850Z,130.40
2019-02-03T10:10:32.963Z,118.00
2019-02-03T10:13:01.535Z,110.78
2019-02-03T10:15:30.268Z,119.47
2019-02-03T10:17:58.843Z,114.55
2019-02-03T10:20:27.452Z,123.02
2019-02-03T10:22:56.081Z,120.90
2019-02-03T10:25:28.879Z,116.08
2019-02-03T10:27:57.587Z,110.78
2019-02-03T10:30:26.619Z,126.62
2019-02-03T10:32:55.737Z,123.30
2019-02-03T10:35:26.566Z,115.82
2019-02-03T10:37:55.674Z,109.87
2019-02-03T10:40:26.875Z,111.83
2019-02-03T10:42:57.587Z,114.65
2019-02-03T10:45:26.315Z,106.37
2019-02-03T10:47:54.954Z,114.12
2019-02-03T10:50:29.125Z,109.22
2019-02-03T10:52:57.940Z,106.03
2019-02-03T10:55:26.598Z,118.82
2019-02-03T10:57:55.376Z,108.80
2019-02-03T11:00:26.639Z,95.03
2019-02-03T11:02:55.206Z,96.65
2019-02-03T11:05:32.173Z,93.40
2019-02-03T11:08:00.744Z,99.47
2019-02-03T11:10:29.767Z,90.17
2019-02-03T11:12:58.503Z,80.07
2019-02-03T11:15:27.232Z,89.30
2019-02-03T11:17:55.802Z,84.28
2019-02-03T11:20:27.199Z,80.17
2019-02-03T11:22:56.708Z,80.10
2019-02-03T11:25:26.234Z,70.47
2019-02-03T11:27:54.942Z,75.37
2019-02-03T11:30:25.579Z,71.33
2019-02-03T11:33:04.680Z,76.70
2019-02-03T11:35:25.863Z,59.50
2019-02-03T11:37:54.832Z,57.53
2019-02-03T11:40:34.244Z,59.08
2019-02-03T11:43:02.954Z,63.50
2019-02-03T11:45:35.846Z,59.93
2019-02-03T11:48:07.260Z,56.37
2019-02-03T11:50:38.289Z,69.82
2019-02-03T11:53:12.147Z,63.20
2019-02-03T11:55:40.747Z,64.75
2019-02-03T11:58:10.355Z,59.70
2019-02-03T12:00:39.484Z,61.18
2019-02-03T12:03:08.399Z,62.10
2019-02-03T12:05:36.987Z,62.33
2019-02-03T12:08:05.895Z,52.98
2019-02-03T12:10:34.554Z,61.00
2019-02-03T12:13:03.187Z,62.62
2019-02-03T12:15:31.784Z,58.60
2019-02-03T12:18:00.521Z,66.10
2019-02-03T12:20:29.152Z,66.28
2019-02-03T12:22:57.999Z,60.85
2019-02-03T12:25:32.235Z,63.55
2019-02-03T12:28:00.898Z,49.35
2019-02-03T12:30:31.703Z,50.48
2019-02-03T12:33:00.634Z,48.87
2019-02-03T12:35:29.204Z,57.98
2019-02-03T12:37:57.798Z,48.08
2019-02-03T12:40:29.277Z,50.95
2019-02-03T12:42:57.880Z,42.43
2019-02-03T12:45:26.984Z,51.63
2019-02-03T12:47:55.634Z,61.08
2019-02-03T12:50:24.212Z,51.68
2019-02-03T12:52:52.872Z,53.95
2019-02-03T12:55:26.602Z,59.00
2019-02-03T12:57:55.191Z,65.45
2019-02-03T13:00:35.119Z,60.78
2019-02-03T13:03:04.551Z,59.25
2019-02-03T13:05:33.122Z,59.70
2019-02-03T13:08:02.651Z,57.50
2019-02-03T13:10:37.223Z,56.37
2019-02-03T13:13:06.762Z,60.98
2019-02-03T13:15:49.982Z,64.47
2019-02-03T13:18:18.948Z,51.92
2019-02-03T13:20:47.589Z,60.98
2019-02-03T13:23:16.180Z,48.02
2019-02-03T13:25:44.746Z,50.43
2019-02-03T13:28:13.346Z,41.85
2019-02-03T13:30:46.839Z,44.58
2019-02-03T13:33:16.060Z,48.50
2019-02-03T13:35:44.797Z,45.90
2019-02-03T13:38:13.455Z,65.83
2019-02-03T13:40:42.099Z,48.15
2019-02-03T13:43:10.692Z,49.77
2019-02-03T13:45:39.568Z,46.35
2019-02-03T13:48:08.399Z,44.77
2019-02-03T13:50:37.235Z,43.83
2019-02-03T13:53:05.903Z,45.95
2019-02-03T13:55:34.642Z,51.30
2019-02-03T13:58:03.299Z,45.45
2019-02-03T14:00:34.775Z,40.28
2019-02-03T14:03:03.608Z,52.43
2019-02-03T14:05:32.256Z,45.98
2019-02-03T14:08:01.022Z,44.70
2019-02-03T14:10:31.726Z,49.20
2019-02-03T14:13:01.427Z,44.90
2019-02-03T14:15:30.068Z,45.38
2019-02-03T14:17:58.929Z,37.45
2019-02-03T14:20:29.909Z,49.10
2019-02-03T14:22:58.839Z,50.88
2019-02-03T14:25:27.956Z,40.78
2019-02-03T14:27:56.776Z,46.83
2019-02-03T14:30:39.743Z,43.95
2019-02-03T14:33:01.246Z,43.15
2019-02-03T14:35:32.783Z,42.83
2019-02-03T14:38:00.213Z,44.73
2019-02-03T14:40:28.739Z,51.18
2019-02-03T14:43:01.667Z,43.52
2019-02-03T14:45:28.396Z,44.80
2019-02-03T14:47:57.051Z,47.13
2019-02-03T14:50:26.863Z,37.25
2019-02-03T14:52:58.666Z,42.00
2019-02-03T14:55:29.862Z,50.35
2019-02-03T14:57:58.450Z,46.23
2019-02-03T15:00:35.007Z,48.92
2019-02-03T15:03:05.736Z,47.20
2019-02-03T15:05:34.311Z,43.55
2019-02-03T15:08:02.898Z,49.55
2019-02-03T15:10:31.564Z,41.48
2019-02-03T15:13:00.167Z,36.68
2019-02-03T15:15:29.767Z,48.25
2019-02-03T15:17:58.804Z,49.38
2019-02-03T15:20:27.916Z,41.15
2019-02-03T15:22:56.914Z,40.85
2019-02-03T15:25:25.557Z,39.18
2019-02-03T15:27:54.619Z,48.00
2019-02-03T15:30:31.838Z,43.15
2019-02-03T15:33:00.429Z,41.05
2019-02-03T15:35:29.011Z,38.45
2019-02-03T15:37:57.596Z,39.30
2019-02-03T15:40:26.166Z,40.12
2019-02-03T15:42:54.759Z,41.68
2019-02-03T15:45:25.575Z,42.10
2019-02-03T15:47:54.161Z,41.88
2019-02-03T15:50:29.868Z,41.50
2019-02-03T15:52:58.529Z,40.90
2019-02-03T15:55:32.803Z,39.98
2019-02-03T15:58:01.544Z,35.85
2019-02-03T16:00:32.338Z,43.87
2019-02-03T16:03:01.074Z,40.98
2019-02-03T16:05:29.708Z,39.13
2019-02-03T16:07:58.311Z,44.23
2019-02-03T16:10:27.624Z,40.10
2019-02-03T16:12:56.291Z,44.83
2019-02-03T16:15:25.000Z,37.58
2019-02-03T16:17:53.728Z,39.33
2019-02-03T16:20:28.877Z,34.58
2019-02-03T16:22:58.438Z,35.35
2019-02-03T16:25:27.011Z,38.10
2019-02-03T16:27:55.764Z,33.88
2019-02-03T16:30:29.695Z,35.33
2019-02-03T16:32:58.690Z,41.83
2019-02-03T16:35:27.265Z,37.83
2019-02-03T16:37:55.858Z,40.33
2019-02-03T16:40:29.403Z,36.33
2019-02-03T16:42:57.996Z,37.70
2019-02-03T16:45:26.836Z,40.60
2019-02-03T16:47:55.756Z,31.35
2019-02-03T16:50:27.182Z,32.30
2019-02-03T16:52:56.396Z,44.63
2019-02-03T16:55:25.103Z,35.58
2019-02-03T16:57:53.694Z,35.20
2019-02-03T17:00:25.298Z,46.28
2019-02-03T17:02:53.918Z,47.62
2019-02-03T17:05:25.884Z,51.73
2019-02-03T17:07:55.099Z,44.38
2019-02-03T17:10:27.690Z,49.73
2019-02-03T17:12:56.395Z,55.28
2019-02-03T17:15:39.598Z,54.38
2019-02-03T17:18:10.029Z,51.70
2019-02-03T17:20:38.599Z,54.73
2019-02-03T17:23:07.330Z,51.70
2019-02-03T17:25:41.408Z,55.28
2019-02-03T17:28:10.004Z,46.83
2019-02-03T17:30:38.639Z,50.67
2019-02-03T17:33:07.299Z,63.55
2019-02-03T17:35:36.100Z,64.35
2019-02-03T17:38:04.975Z,60.85
2019-02-03T17:40:33.546Z,68.57
2019-02-03T17:43:02.115Z,62.98
2019-02-03T17:45:30.775Z,62.20
2019-02-03T17:47:59.338Z,60.55
2019-02-03T17:50:32.151Z,68.15
2019-02-03T17:53:00.786Z,53.87
2019-02-03T17:55:29.452Z,59.30
2019-02-03T17:57:58.318Z,51.42
2019-02-03T18:00:30.283Z,65.05
2019-02-03T18:02:58.854Z,55.80
2019-02-03T18:05:27.710Z,66.12
2019-02-03T18:07:56.287Z,70.90
2019-02-03T18:10:25.034Z,89.72
2019-02-03T18:12:53.706Z,94.45
2019-02-03T18:15:22.366Z,90.20
2019-02-03T18:17:50.939Z,102.38
2019-02-03T18:20:24.557Z,114.40
2019-02-03T18:22:53.222Z,100.50
2019-02-03T18:25:22.210Z,92.75
2019-02-03T18:27:50.863Z,103.97
2019-02-03T18:30:21.997Z,103.42
2019-02-03T18:32:50.642Z,98.27
2019-02-03T18:35:19.308Z,102.47
2019-02-03T18:37:47.876Z,99.83
2019-02-03T18:40:21.166Z,105.32
2019-02-03T18:42:49.733Z,108.50
2019-02-03T18:45:23.834Z,109.40
2019-02-03T18:47:52.414Z,101.12
2019-02-03T18:50:23.144Z,119.28
2019-02-03T18:52:52.455Z,123.47
2019-02-03T18:55:32.702Z,99.05
2019-02-03T18:58:01.275Z,118.00
2019-02-03T19:00:35.175Z,110.05
2019-02-03T19:03:04.591Z,134.87
2019-02-03T19:05:35.022Z,114.28
2019-02-03T19:08:03.735Z,122.72
2019-02-03T19:10:32.967Z,122.33
2019-02-03T19:13:01.703Z,111.57
2019-02-03T19:15:32.348Z,119.30
2019-02-03T19:18:01.176Z,110.45
2019-02-03T19:20:32.379Z,100.33
2019-02-03T19:23:01.091Z,113.80
2019-02-03T19:25:29.754Z,116.73
2019-02-03T19:27:58.397Z,102.70
2019-02-03T19:30:27.528Z,102.82
2019-02-03T19:32:56.101Z,93.65
2019-02-03T19:35:29.879Z,103.45
2019-02-03T19:37:58.583Z,98.97
2019-02-03T19:40:31.473Z,106.35
2019-02-03T19:43:00.039Z,89.83
2019-02-03T19:45:30.475Z,85.85
2019-02-03T19:47:59.113Z,90.57
2019-02-03T19:50:36.218Z,86.37
2019-02-03T19:53:05.927Z,89.15
2019-02-03T19:55:34.518Z,100.60
2019-02-03T19:58:03.455Z,93.15
2019-02-03T20:00:36.662Z,87.78
2019-02-03T20:03:06.107Z,93.95
2019-02-03T20:05:34.769Z,104.50
2019-02-03T20:08:03.479Z,89.55
2019-02-03T20:10:32.598Z,82.55
2019-02-03T20:13:02.071Z,87.90
2019-02-03T20:15:30.811Z,105.30
2019-02-03T20:17:59.562Z,83.87
2019-02-03T20:20:30.702Z,98.90
2019-02-03T20:22:59.335Z,97.55
2019-02-03T20:25:28.467Z,93.50
2019-02-03T20:27:57.485Z,93.78
2019-02-03T20:30:37.897Z,87.65
2019-02-03T20:32:57.719Z,97.20
2019-02-03T20:35:28.257Z,73.87
2019-02-03T20:37:57.096Z,78.07
2019-02-03T20:40:31.309Z,93.80
2019-02-03T20:43:00.148Z,81.40
2019-02-03T20:45:28.984Z,97.33
2019-02-03T20:47:57.664Z,84.28
2019-02-03T20:50:26.692Z,86.35
2019-02-03T20:52:55.632Z,89.58
2019-02-03T20:55:24.292Z,78.22
2019-02-03T20:57:52.936Z,93.50
2019-02-03T21:00:23.375Z,73.05
2019-02-03T21:02:52.114Z,84.90
2019-02-03T21:05:20.776Z,75.37
2019-02-03T21:07:49.783Z,89.17
2019-02-03T21:10:22.843Z,86.55
2019-02-03T21:12:51.474Z,84.05
2019-02-03T21:15:32.573Z,86.17
2019-02-03T21:17:52.462Z,73.60
2019-02-03T21:20:25.654Z,85.20
2019-02-03T21:22:54.294Z,77.37
2019-02-03T21:25:22.955Z,75.90
2019-02-03T21:27:51.586Z,71.05
2019-02-03T21:30:28.752Z,78.15
2019-02-03T21:32:57.707Z,70.83
2019-02-03T21:35:26.340Z,72.55
2019-02-03T21:37:54.908Z,64.90
2019-02-03T21:40:25.242Z,72.80
2019-02-03T21:42:54.342Z,63.15
2019-02-03T21:45:23.175Z,61.53
2019-02-03T21:47:52.115Z,72.67
2019-02-03T21:50:22.647Z,73.28
2019-02-03T21:52:51.291Z,76.53
2019-02-03T21:55:21.615Z,67.42
2019-02-03T21:57:50.179Z,63.08
2019-02-03T22:00:29.355Z,65.78
2019-02-03T22:02:58.163Z,60.50
2019-02-03T22:05:27.396Z,61.75
2019-02-03T22:07:55.971Z,55.60
2019-02-03T22:10:26.404Z,54.15
2019-02-03T22:12:55.039Z,56.08
2019-02-03T22:15:23.629Z,57.50
2019-02-03T22:17:52.189Z,53.80
2019-02-03T22:20:24.912Z,52.27
2019-02-03T22:22:53.551Z,46.48
2019-02-03T22:25:22.137Z,52.15
2019-02-03T22:27:51.111Z,55.30
2019-02-03T22:30:37.024Z,49.48
2019-02-03T22:33:06.226Z,54.88
2019-02-03T22:35:34.969Z,51.42
2019-02-03T22:38:03.605Z,46.68
2019-02-03T22:40:32.192Z,52.75
2019-02-03T22:43:00.765Z,46.88
2019-02-03T22:45:29.351Z,39.18
2019-02-03T22:47:57.914Z,36.85
2019-02-03T22:50:29.322Z,45.43
2019-02-03T22:52:58.268Z,42.40
2019-02-03T22:55:26.834Z,45.23
2019-02-03T22:57:55.499Z,40.52
2019-02-03T23:00:51.537Z,30.57
2019-02-03T23:03:20.223Z,34.23
2019-02-03T23:05:48.814Z,35.38
2019-02-03T23:08:17.386Z,38.78
2019-02-03T23:10:46.042Z,35.45
2019-02-03T23:13:14.622Z,41.40
2019-02-03T23:15:43.207Z,45.10
2019-02-03T23:18:11.774Z,34.35
2019-02-03T23:20:40.345Z,34.73
2019-02-03T23:23:08.935Z,35.92
2019-02-03T23:25:37.511Z,30.60
2019-02-03T23:28:06.103Z,34.48
2019-02-03T23:30:34.675Z,35.88
2019-02-03T23:33:03.339Z,35.15
2019-02-03T23:35:31.902Z,37.53
2019-02-03T23:38:00.500Z,31.65
2019-02-03T23:40:29.088Z,33.40
2019-02-03T23:42:58.918Z,39.50
2019-02-03T23:45:27.666Z,39.85
2019-02-03T23:47:56.377Z,34.80
2019-02-03T23:50:24.931Z,35.17
2019-02-03T23:52:53.622Z,35.38
2019-02-03T23:55:22.191Z,39.80
2019-02-03T23:57:50.775Z,31.27
